Time;durP1;ratioP1;P1;durP2;ratioP2;P2;SDS_P1;SDS_P2;PMS_P1;PMS_P2;Temp;Humidity;BMP_temperature;BMP_pressure;BME280_temperature;BME280_humidity;BME280_pressure;Samples;Min_cycle;Max_cycle;Signal;HPM_P1;HPM_P2
2021/03/01 00:00:11;;;;;;;56.25;25.98;;;;;;;5.81;63.36;101101.47;5025300;28;20362;-74
2021/03/01 00:02:37;;;;;;;;;;;;;;;5.69;63.99;101103.09;5024956;28;20045;-71
2021/03/01 00:05:02;;;;;;;62.43;25.83;;;;;;;5.51;64.60;101099.00;5028105;28;19925;-77
2021/03/01 00:07:28;;;;;;;65.72;27.52;;;;;;;5.31;65.64;101091.53;5030124;28;20227;-72
2021/03/01 00:09:53;;;;;;;65.50;26.80;;;;;;;5.22;66.18;101094.72;5024987;28;20041;-77
2021/03/01 00:12:19;;;;;;;69.17;28.40;;;;;;;5.08;67.51;101092.91;5030508;28;20041;-77
2021/03/01 00:14:44;;;;;;;56.40;26.13;;;;;;;5.08;67.38;101075.38;5040742;28;20231;-77
2021/03/01 00:17:10;;;;;;;60.22;26.17;;;;;;;5.21;67.07;101085.16;5037610;28;20358;-77
2021/03/01 00:19:36;;;;;;;55.83;24.60;;;;;;;5.24;66.96;101077.09;5028069;28;20360;-75
2021/03/01 00:22:01;;;;;;;54.50;24.70;;;;;;;5.37;66.12;101075.38;5031753;28;20041;-74
2021/03/01 00:24:26;;;;;;;45.78;20.70;;;;;;;5.33;65.58;101066.84;5020615;28;20026;-75
2021/03/01 00:26:52;;;;;;;43.20;20.08;;;;;;;5.45;64.29;101068.72;5024596;28;20219;-69
2021/03/01 00:29:17;;;;;;;43.17;18.95;;;;;;;5.43;63.35;101067.13;5024776;28;20197;-74
2021/03/01 00:31:43;;;;;;;38.42;18.08;;;;;;;5.46;62.76;101064.28;5024748;28;20365;-75
2021/03/01 00:34:08;;;;;;;35.00;16.27;;;;;;;5.20;63.07;101062.44;5025130;28;20041;-71
2021/03/01 00:36:33;;;;;;;33.07;16.10;;;;;;;5.31;63.01;101054.75;5027033;28;20390;-71
2021/03/01 00:39:00;;;;;;;29.93;14.87;;;;;;;5.31;63.07;101046.88;5030618;28;20053;-71
2021/03/01 00:41:25;;;;;;;33.67;15.63;;;;;;;5.20;62.96;101049.31;5025892;28;20029;-76
2021/03/01 00:43:51;;;;;;;39.40;15.50;;;;;;;5.05;63.39;101051.09;5024829;28;20049;-76
2021/03/01 00:46:16;;;;;;;29.77;15.13;;;;;;;5.00;64.21;101051.38;5026898;28;20327;-77
2021/03/01 00:48:42;;;;;;;37.97;14.80;;;;;;;5.19;63.25;101055.50;5032832;28;20033;-77
2021/03/01 00:51:07;;;;;;;28.45;14.15;;;;;;;5.32;62.36;101059.06;5028946;28;20041;-76
2021/03/01 00:53:33;;;;;;;29.87;13.87;;;;;;;5.05;62.80;101059.81;5028876;28;20498;-76
2021/03/01 00:55:58;;;;;;;36.63;18.40;;;;;;;4.87;63.63;101055.69;5031056;28;20258;-68
2021/03/01 00:58:24;;;;;;;30.98;15.05;;;;;;;4.82;63.77;101055.97;5027999;28;20034;-74
2021/03/01 01:00:51;;;;;;;32.72;15.85;;;;;;;5.33;61.80;101056.34;5030964;28;20029;-68
2021/03/01 01:03:18;;;;;;;29.17;13.35;;;;;;;4.97;62.60;101046.31;5035312;28;20037;-74
2021/03/01 01:05:44;;;;;;;29.47;14.67;;;;;;;4.62;63.89;101034.50;5029000;28;20045;-68
2021/03/01 01:08:09;;;;;;;28.43;14.10;;;;;;;4.73;63.52;101039.94;5033635;28;20073;-68
2021/03/01 01:10:36;;;;;;;25.40;12.97;;;;;;;4.88;62.95;101046.03;5027319;28;20033;-74
2021/03/01 01:13:02;;;;;;;24.67;11.45;;;;;;;4.97;62.75;101034.97;5024182;28;20054;-74
2021/03/01 01:15:28;;;;;;;31.73;13.02;;;;;;;4.88;62.77;101032.94;5032994;28;20057;-74
2021/03/01 01:17:53;;;;;;;26.00;12.57;;;;;;;5.21;61.68;101046.63;5028415;28;20095;-74
2021/03/01 01:20:19;;;;;;;43.78;16.90;;;;;;;5.07;61.14;101026.44;5022317;28;20082;-77
2021/03/01 01:22:45;;;;;;;31.80;14.95;;;;;;;4.95;61.10;101042.09;5021676;28;20104;-76
2021/03/01 01:25:12;;;;;;;39.73;16.30;;;;;;;4.85;61.92;101038.38;5033403;28;20033;-76
2021/03/01 01:27:38;;;;;;;35.28;14.23;;;;;;;4.62;62.89;101042.38;5028772;28;20349;-76
2021/03/01 01:30:09;;;;;;;80.90;25.23;;;;;;;4.62;62.94;101034.50;5029288;28;20026;-74
2021/03/01 01:32:36;;;;;;;74.80;24.23;;;;;;;4.79;62.24;101024.69;5031639;28;20061;-74
2021/03/01 01:35:05;;;;;;;103.90;29.92;;;;;;;4.79;62.04;101024.69;5023481;28;20137;-68
2021/03/01 01:37:30;;;;;;;60.33;20.33;;;;;;;4.76;61.80;101024.03;5024511;28;20128;-68
2021/03/01 01:39:56;;;;;;;59.38;20.35;;;;;;;4.96;60.73;101013.13;5032305;28;20064;-76
2021/03/01 01:42:21;;;;;;;44.97;18.13;;;;;;;5.00;60.57;101011.16;5027737;28;20049;-77
2021/03/01 01:44:47;;;;;;;35.38;14.63;;;;;;;4.95;60.49;101014.09;5027205;28;20026;-76
2021/03/01 01:47:12;;;;;;;36.93;15.10;;;;;;;4.88;60.76;101009.31;5049912;28;20239;-76
2021/03/01 01:49:37;;;;;;;41.10;17.00;;;;;;;4.68;61.27;101014.00;5026830;28;20030;-76
2021/03/01 01:52:03;;;;;;;40.45;16.13;;;;;;;4.57;61.72;101011.19;5022418;28;20038;-76
2021/03/01 01:54:29;;;;;;;29.88;13.88;;;;;;;4.24;62.69;101011.41;5029662;28;20033;-74
2021/03/01 01:56:55;;;;;;;33.17;14.40;;;;;;;4.23;63.33;101011.50;5029850;28;20041;-74
2021/03/01 01:59:21;;;;;;;40.57;16.53;;;;;;;4.68;61.38;101003.50;5026420;28;20105;-68
2021/03/01 02:01:49;;;;;;;29.13;14.00;;;;;;;4.61;61.94;100994.31;5022324;28;20034;-74
2021/03/01 02:04:33;;;;;;;26.15;13.25;;;;;;;4.88;60.96;100990.94;5031629;28;20037;-68
2021/03/01 02:07:11;;;;;;;25.48;12.80;;;;;;;4.88;61.09;100990.94;5033186;28;20342;-74
2021/03/01 02:10:30;;;;;;;26.45;13.50;;;;;;;5.10;59.85;100978.16;5035555;28;20037;-74
2021/03/01 02:13:09;;;;;;;25.85;11.82;;;;;;;4.90;60.65;100968.91;4985235;28;20038;-77
2021/03/01 02:15:53;;;;;;;26.58;12.52;;;;;;;4.91;60.83;100969.75;5017525;28;20049;-76
2021/03/01 02:18:18;;;;;;;22.43;10.43;;;;;;;4.83;60.82;100978.09;5021014;28;20156;-76
2021/03/01 02:20:48;;;;;;;18.75;10.10;;;;;;;4.83;60.71;100978.09;5024032;28;20324;-76
2021/03/01 02:23:15;;;;;;;21.00;10.23;;;;;;;4.57;61.56;100974.47;5026108;28;20227;-76
2021/03/01 02:25:57;;;;;;;22.03;9.93;;;;;;;4.26;62.58;100967.59;5039036;28;20040;-74
2021/03/01 02:28:28;;;;;;;21.17;9.50;;;;;;;4.46;61.66;100972.50;5036988;28;20044;-69
2021/03/01 02:30:57;;;;;;;18.57;8.63;;;;;;;4.11;62.74;100966.72;5042411;28;20079;-74
2021/03/01 02:33:26;;;;;;;18.07;8.83;;;;;;;4.20;62.41;100969.75;5040389;28;20029;-68
2021/03/01 02:36:00;;;;;;;24.00;9.10;;;;;;;4.09;62.08;100965.97;5027495;28;20230;-68
2021/03/01 02:38:27;;;;;;;;;;;;;;;4.31;62.02;100977.81;5029322;28;20041;-74
2021/03/01 02:40:54;;;;;;;13.87;7.30;;;;;;;4.30;61.76;100957.78;5033173;28;19920;-74
2021/03/01 02:43:21;;;;;;;15.20;8.17;;;;;;;4.42;61.34;100959.66;5026522;28;20236;-77
2021/03/01 02:45:48;;;;;;;17.00;8.52;;;;;;;4.34;61.41;100962.75;5020621;28;20032;-77
2021/03/01 02:48:15;;;;;;;18.00;9.13;;;;;;;4.31;61.53;100964.72;5036238;28;20045;-75
2021/03/01 02:50:44;;;;;;;19.63;8.30;;;;;;;4.43;61.25;100958.72;5026420;28;20037;-74
2021/03/01 02:53:11;;;;;;;14.43;8.10;;;;;;;4.46;61.38;100955.91;5032000;28;20049;-74
2021/03/01 02:55:39;;;;;;;17.93;8.00;;;;;;;4.50;60.83;100960.03;5049942;28;20060;-74
2021/03/01 02:58:05;;;;;;;15.83;7.67;;;;;;;4.60;60.65;100955.06;5026577;28;20049;-74
2021/03/01 03:00:31;;;;;;;14.40;8.05;;;;;;;4.77;59.92;100957.47;5032541;28;20040;-68
2021/03/01 03:02:57;;;;;;;19.08;9.32;;;;;;;4.80;59.35;100950.25;5028755;28;20235;-71
2021/03/01 03:05:25;;;;;;;50.65;21.27;;;;;;;4.53;60.10;100956.38;5030818;28;20039;-76
2021/03/01 03:07:52;;;;;;;28.00;11.73;;;;;;;4.45;60.26;100959.47;5028767;28;20076;-76
2021/03/01 03:10:18;;;;;;;27.30;11.77;;;;;;;4.45;59.75;100955.06;5028457;28;20041;-76
2021/03/01 03:12:44;;;;;;;16.57;8.37;;;;;;;4.45;59.57;100955.06;5027391;28;20026;-76
2021/03/01 03:15:14;;;;;;;18.90;8.60;;;;;;;4.39;59.27;100944.94;5021692;28;20034;-76
2021/03/01 03:17:41;;;;;;;19.13;9.00;;;;;;;4.33;59.39;100949.72;5028766;28;20037;-76
2021/03/01 03:20:08;;;;;;;19.48;9.52;;;;;;;4.25;59.73;100958.06;5024788;28;20040;-76
2021/03/01 03:22:34;;;;;;;19.20;8.87;;;;;;;4.02;59.72;100956.78;5025670;28;20224;-76
2021/03/01 03:25:01;;;;;;;16.83;7.83;;;;;;;3.86;58.87;100963.84;5024820;28;20038;-70
2021/03/01 03:27:26;;;;;;;15.90;8.20;;;;;;;3.71;59.46;100946.41;5024803;28;20038;-76
2021/03/01 03:29:52;;;;;;;14.73;7.70;;;;;;;3.39;60.42;100954.31;5025422;28;20228;-76
2021/03/01 03:32:18;;;;;;;15.70;7.00;;;;;;;3.28;61.14;100963.72;5025032;28;20061;-76
2021/03/01 03:34:43;;;;;;;17.17;7.60;;;;;;;3.34;61.22;100956.38;5036077;28;20022;-70
2021/03/01 03:37:17;;;;;;;21.83;9.03;;;;;;;3.43;60.70;100957.63;5023407;28;20266;-76
2021/03/01 03:39:46;;;;;;;15.90;8.77;;;;;;;3.44;61.28;100949.69;5026216;28;20056;-76
2021/03/01 03:42:23;;;;;;;15.60;7.40;;;;;;;3.48;61.43;100951.19;5025541;28;20065;-76
2021/03/01 03:44:50;;;;;;;17.87;8.00;;;;;;;3.48;62.09;100952.97;5033789;28;20038;-76
2021/03/01 03:47:16;;;;;;;19.90;8.10;;;;;;;3.60;61.39;100952.25;5040576;28;20040;-76
2021/03/01 03:49:44;;;;;;;19.37;9.37;;;;;;;3.63;61.63;100952.09;5036738;28;20227;-76
2021/03/01 03:52:12;;;;;;;22.20;10.63;;;;;;;3.77;61.31;100948.66;5021647;28;20042;-76
2021/03/01 03:54:41;;;;;;;27.13;11.90;;;;;;;3.87;60.89;100948.97;5020748;28;20087;-76
2021/03/01 03:57:11;;;;;;;24.43;11.10;;;;;;;3.78;61.58;100940.72;5023046;28;20048;-70
2021/03/01 03:59:40;;;;;;;30.20;13.03;;;;;;;4.02;60.49;100945.44;5033731;28;20330;-70
2021/03/01 04:02:08;;;;;;;23.37;10.30;;;;;;;3.90;60.83;100951.41;5027909;28;20196;-71
2021/03/01 04:04:36;;;;;;;24.10;10.40;;;;;;;3.90;60.94;100941.78;5021066;28;20026;-76
2021/03/01 04:07:03;;;;;;;22.27;11.03;;;;;;;3.61;61.92;100938.22;5020515;28;20236;-70
2021/03/01 04:09:30;;;;;;;29.33;12.30;;;;;;;3.55;62.50;100933.34;5020969;28;20061;-71
2021/03/01 04:11:57;;;;;;;29.87;13.90;;;;;;;3.62;62.19;100932.06;5020227;28;20030;-70
2021/03/01 04:14:25;;;;;;;33.63;12.93;;;;;;;3.45;63.07;100935.66;5024944;28;20038;-70
2021/03/01 04:16:58;;;;;;;24.13;12.20;;;;;;;3.31;62.54;100885.00;5027864;28;20308;-71
2021/03/01 04:19:27;;;;;;;29.77;14.45;;;;;;;3.74;61.21;100930.50;5028052;28;20338;-70
2021/03/01 04:21:55;;;;;;;36.27;15.57;;;;;;;3.35;62.30;100934.50;5032205;28;20231;-70
2021/03/01 04:24:22;;;;;;;32.17;14.70;;;;;;;3.02;64.13;100939.81;5025457;28;20029;-70
2021/03/01 04:26:49;;;;;;;44.67;17.97;;;;;;;3.11;64.27;100938.44;5024052;28;20025;-76
2021/03/01 04:29:15;;;;;;;58.77;24.27;;;;;;;3.25;64.03;100935.09;5027622;28;20205;-76
2021/03/01 04:31:43;;;;;;;53.83;28.70;;;;;;;3.35;63.26;100931.88;5035120;28;20029;-76
2021/03/01 04:34:09;;;;;;;41.07;19.23;;;;;;;3.42;62.77;100927.13;5032425;28;20319;-76
2021/03/01 04:36:36;;;;;;;73.37;53.07;;;;;;;3.21;63.76;100931.81;5031086;28;20287;-76
2021/03/01 04:39:04;;;;;;;29.43;17.07;;;;;;;3.24;63.36;100938.63;5032359;28;20449;-76
2021/03/01 04:41:31;;;;;;;35.90;16.03;;;;;;;3.28;63.81;100955.88;5028084;28;20022;-76
2021/03/01 04:43:58;;;;;;;35.33;16.47;;;;;;;3.57;62.65;100948.97;5031767;28;20100;-76
2021/03/01 04:46:24;;;;;;;27.92;12.70;;;;;;;3.43;62.49;100947.16;5023734;28;20033;-76
2021/03/01 04:48:51;;;;;;;30.63;14.20;;;;;;;3.32;63.12;100947.75;5031447;28;20030;-76
2021/03/01 04:51:16;;;;;;;55.40;16.67;;;;;;;3.25;63.43;100943.78;5042861;28;20040;-76
2021/03/01 04:53:43;;;;;;;33.43;15.03;;;;;;;3.61;62.59;100951.31;5043150;28;20041;-76
2021/03/01 04:56:09;;;;;;;36.83;14.63;;;;;;;3.43;62.91;100950.59;5025874;28;20037;-70
2021/03/01 04:58:38;;;;;;;55.73;18.40;;;;;;;3.59;62.83;100949.72;5023851;28;20033;-70
2021/03/01 05:01:06;;;;;;;27.10;14.53;;;;;;;3.82;61.68;100950.09;5024777;28;20320;-75
2021/03/01 05:03:32;;;;;;;34.33;13.80;;;;;;;3.80;61.70;100948.47;5028178;28;20037;-76
2021/03/01 05:06:02;;;;;;;56.97;19.90;;;;;;;3.84;61.80;100956.06;5042720;28;20041;-76
2021/03/01 05:08:29;;;;;;;39.63;16.33;;;;;;;3.98;61.74;100957.88;5028182;28;20038;-70
2021/03/01 05:10:59;;;;;;;27.30;12.17;;;;;;;4.25;60.22;100954.59;5031427;28;20030;-76
2021/03/01 05:13:25;;;;;;;27.40;12.67;;;;;;;4.04;61.01;100954.91;5030100;28;20037;-76
2021/03/01 05:15:51;;;;;;;28.07;14.40;;;;;;;4.16;60.76;100958.56;5029346;28;20053;-76
2021/03/01 05:18:17;;;;;;;30.73;13.20;;;;;;;4.26;60.29;100948.41;5034499;28;20045;-76
2021/03/01 05:20:42;;;;;;;32.60;13.73;;;;;;;4.47;59.36;100955.81;5022565;28;20291;-76
2021/03/01 05:23:08;;;;;;;36.53;15.67;;;;;;;4.49;59.16;100955.72;5029469;28;20048;-76
2021/03/01 05:25:34;;;;;;;35.25;16.00;;;;;;;4.72;58.51;100959.56;5031326;28;20044;-70
2021/03/01 05:28:00;;;;;;;41.13;16.57;;;;;;;4.49;59.20;100955.72;5028773;28;20033;-76
2021/03/01 05:30:26;;;;;;;35.03;13.63;;;;;;;4.52;59.44;100968.66;5026155;28;20101;-70
2021/03/01 05:32:51;;;;;;;37.17;13.83;;;;;;;4.65;59.00;100968.75;5030406;28;20048;-70
2021/03/01 05:35:17;;;;;;;37.17;14.60;;;;;;;4.38;59.32;100966.88;5027509;28;20080;-70
2021/03/01 05:37:42;;;;;;;59.73;17.50;;;;;;;4.48;59.54;100975.88;5034913;28;20037;-70
2021/03/01 05:40:08;;;;;;;44.30;14.77;;;;;;;4.61;58.99;100968.09;5030473;28;20093;-73
2021/03/01 05:42:36;;;;;;;113.77;29.00;;;;;;;4.60;59.30;100979.53;5036322;28;20041;-73
2021/03/01 05:45:07;;;;;;;50.72;17.52;;;;;;;4.66;59.27;100975.69;5042167;28;20033;-74
2021/03/01 05:47:35;;;;;;;24.80;11.45;;;;;;;5.00;58.57;100974.41;5030082;28;20247;-74
2021/03/01 05:50:01;;;;;;;25.13;11.37;;;;;;;5.09;58.50;100971.22;5033850;28;20040;-74
2021/03/01 05:52:28;;;;;;;37.85;11.82;;;;;;;5.28;58.46;100968.28;5033460;28;20105;-74
2021/03/01 05:54:54;;;;;;;30.55;10.95;;;;;;;5.44;58.05;100963.72;5035488;28;20033;-74
2021/03/01 05:57:20;;;;;;;26.05;10.60;;;;;;;5.53;57.78;100970.16;5023777;28;20684;-73
2021/03/01 05:59:47;;;;;;;21.92;10.50;;;;;;;5.59;58.02;100973.25;5032558;28;20346;-74
2021/03/01 06:02:15;;;;;;;24.60;11.27;;;;;;;5.90;57.18;100973.88;5032444;28;20041;-68
2021/03/01 06:04:41;;;;;;;21.77;9.73;;;;;;;5.86;57.71;100961.84;5037522;28;20029;-73
2021/03/01 06:07:06;;;;;;;30.98;10.52;;;;;;;5.76;58.46;100954.56;5030315;28;20041;-68
2021/03/01 06:09:32;;;;;;;27.45;11.75;;;;;;;5.85;58.20;100955.75;5033830;28;20032;-73
2021/03/01 06:11:58;;;;;;;33.20;14.23;;;;;;;6.01;57.94;100945.91;5027176;28;20347;-68
2021/03/01 06:14:23;;;;;;;33.85;10.32;;;;;;;6.22;56.90;100958.56;5026823;28;20025;-67
2021/03/01 06:17:18;;;;;;;24.98;10.18;;;;;;;6.49;55.93;100955.84;5029480;28;20040;-68
2021/03/01 06:19:46;;;;;;;22.63;9.77;;;;;;;6.70;55.49;100951.72;5025696;28;20217;-68
2021/03/01 06:22:12;;;;;;;22.83;10.10;;;;;;;6.90;55.53;100947.69;5032591;28;20334;-70
2021/03/01 06:24:38;;;;;;;21.15;10.27;;;;;;;7.05;55.23;100939.53;5030383;28;20041;-69
2021/03/01 06:27:04;;;;;;;25.15;10.25;;;;;;;7.27;54.86;100948.50;5031593;28;20037;-70
2021/03/01 06:29:29;;;;;;;21.33;10.40;;;;;;;7.39;54.58;100942.38;5037005;28;20021;-70
2021/03/01 06:31:55;;;;;;;20.55;9.48;;;;;;;7.42;54.41;100946.56;5026652;28;20071;-70
2021/03/01 06:34:28;;;;;;;23.67;10.40;;;;;;;7.50;53.59;100934.50;5031627;28;20029;-69
2021/03/01 06:37:11;;;;;;;27.58;10.23;;;;;;;7.76;53.35;100934.38;5035841;28;20025;-69
2021/03/01 06:39:39;;;;;;;25.42;10.20;;;;;;;7.98;53.30;100934.44;5048359;28;20311;-69
2021/03/01 06:42:20;;;;;;;27.27;10.57;;;;;;;8.46;52.06;100936.97;5040873;28;20088;-69
2021/03/01 06:44:59;;;;;;;19.98;10.20;;;;;;;8.53;51.22;100923.16;5033965;28;20030;-69
2021/03/01 06:47:50;;;;;;;20.67;9.82;;;;;;;8.82;50.66;100928.78;5040600;28;20037;-69
2021/03/01 06:50:43;;;;;;;16.27;8.73;;;;;;;8.97;50.17;100921.44;5029770;28;20100;-69
2021/03/01 06:53:12;;;;;;;27.17;8.70;;;;;;;9.16;48.66;100921.63;5032858;28;20466;-71
2021/03/01 06:55:59;;;;;;;19.73;8.45;;;;;;;9.42;47.81;100913.41;5029532;28;20044;-69
2021/03/01 06:58:27;;;;;;;26.50;8.85;;;;;;;9.66;46.97;100916.66;5018105;28;20096;-71
2021/03/01 07:01:01;;;;;;;15.93;8.68;;;;;;;9.85;46.75;100913.31;5026477;28;20029;-78
2021/03/01 07:03:26;;;;;;;18.98;8.93;;;;;;;10.08;45.83;100911.38;5044178;28;20030;-72
2021/03/01 07:05:56;;;;;;;21.00;8.65;;;;;;;10.30;44.55;100915.72;5025802;28;20040;-77
2021/03/01 07:08:37;;;;;;;19.63;8.13;;;;;;;10.42;44.22;100914.69;5029466;28;20275;-71
2021/03/01 07:11:26;;;;;;;13.82;7.28;;;;;;;10.71;43.56;100915.63;5028958;28;20040;-72
2021/03/01 07:13:58;;;;;;;15.13;7.63;;;;;;;10.73;42.48;100904.91;5029881;28;20223;-69
2021/03/01 07:16:25;;;;;;;22.25;7.78;;;;;;;10.71;42.24;100917.44;5029402;28;20034;-69
2021/03/01 07:18:51;;;;;;;21.42;8.48;;;;;;;10.97;42.67;100904.53;5022168;28;20042;-69
2021/03/01 07:21:18;;;;;;;22.98;8.43;;;;;;;11.01;41.64;100908.59;5033775;28;20061;-69
2021/03/01 07:23:48;;;;;;;15.75;7.82;;;;;;;11.11;41.34;100906.81;5028748;28;21838;-69
2021/03/01 07:26:17;;;;;;;14.70;8.05;;;;;;;10.85;40.33;100903.81;5021454;28;20030;-75
2021/03/01 07:28:50;;;;;;;23.70;8.13;;;;;;;10.87;41.28;100912.47;5020470;28;20037;-72
2021/03/01 07:31:17;;;;;;;12.38;7.30;;;;;;;10.87;41.44;100910.66;5025762;28;20029;-77
2021/03/01 07:33:43;;;;;;;22.27;7.35;;;;;;;11.20;40.63;100913.94;5025938;28;20061;-69
2021/03/01 07:36:13;;;;;;;20.33;7.38;;;;;;;11.02;40.35;100915.56;5029158;28;20026;-75
2021/03/01 07:38:40;;;;;;;18.13;8.00;;;;;;;11.30;40.04;100914.78;5029739;28;20034;-69
2021/03/01 07:41:06;;;;;;;20.92;9.20;;;;;;;11.81;39.51;100913.72;5025240;28;20032;-69
2021/03/01 07:43:36;;;;;;;23.95;9.45;;;;;;;11.70;38.92;100911.19;5028485;28;20042;-69
2021/03/01 07:46:02;;;;;;;30.70;11.63;;;;;;;11.61;38.38;100915.50;5031109;28;20037;-69
2021/03/01 07:48:55;;;;;;;16.88;7.97;;;;;;;11.48;38.90;100905.19;5026284;28;20215;-69
2021/03/01 07:51:40;;;;;;;20.25;9.57;;;;;;;11.63;38.34;100904.75;5022017;28;20534;-69
2021/03/01 07:54:05;;;;;;;22.60;8.57;;;;;;;11.64;39.40;100907.28;5022808;28;20096;-69
2021/03/01 07:56:30;;;;;;;33.08;9.50;;;;;;;11.58;38.93;100907.84;5030827;28;20033;-69
2021/03/01 07:59:00;;;;;;;20.88;8.77;;;;;;;11.75;39.43;100908.94;5031037;28;20112;-69
2021/03/01 08:01:26;;;;;;;30.08;10.35;;;;;;;11.80;39.16;100912.88;5033047;28;20230;-75
2021/03/01 08:03:52;;;;;;;15.63;8.30;;;;;;;11.95;39.11;100915.09;5031374;28;20234;-69
2021/03/01 08:06:18;;;;;;;17.20;8.45;;;;;;;12.14;39.04;100921.19;5044632;28;20033;-69
2021/03/01 08:08:49;;;;;;;16.30;9.27;;;;;;;12.05;39.28;100922.06;5042780;28;20042;-75
2021/03/01 08:11:15;;;;;;;20.20;9.00;;;;;;;11.82;39.16;100918.03;5029751;28;20074;-75
2021/03/01 08:13:41;;;;;;;22.08;10.45;;;;;;;11.97;39.59;100916.63;5028086;28;20046;-75
2021/03/01 08:16:23;;;;;;;21.20;8.95;;;;;;;12.13;38.77;100918.69;5029483;28;20025;-75
2021/03/01 08:18:53;;;;;;;16.50;8.07;;;;;;;12.37;37.53;100912.88;5032330;28;20025;-75
2021/03/01 08:21:19;;;;;;;18.52;8.55;;;;;;;12.72;37.72;100904.25;5028431;28;20029;-75
2021/03/01 08:23:47;;;;;;;18.27;8.63;;;;;;;12.96;37.24;100893.06;5027894;28;20092;-75
2021/03/01 08:26:30;;;;;;;14.70;8.20;;;;;;;12.63;36.95;100886.53;5036951;28;20096;-69
2021/03/01 08:29:00;;;;;;;17.77;9.95;;;;;;;13.03;37.47;100896.78;5036715;28;20045;-69
2021/03/01 08:31:27;;;;;;;23.85;9.27;;;;;;;13.41;36.57;100890.38;5023941;28;20030;-69
2021/03/01 08:33:53;;;;;;;16.10;8.38;;;;;;;13.30;35.81;100880.81;5031955;28;20025;-75
2021/03/01 08:36:21;;;;;;;16.33;8.98;;;;;;;13.42;36.71;100879.59;5025605;28;20060;-69
2021/03/01 08:38:55;;;;;;;14.73;8.55;;;;;;;13.48;36.79;100880.78;5037892;28;20208;-69
2021/03/01 08:41:29;;;;;;;17.67;8.93;;;;;;;13.48;36.03;100886.13;5043750;28;20029;-75
2021/03/01 08:43:58;;;;;;;18.77;10.55;;;;;;;13.37;36.84;100889.84;5042419;28;20038;-75
2021/03/01 08:46:23;;;;;;;23.75;11.57;;;;;;;13.53;36.33;100893.69;5037880;28;20044;-76
2021/03/01 08:48:55;;;;;;;18.30;10.57;;;;;;;13.76;36.36;100902.84;5032650;28;20013;-75
2021/03/01 08:51:22;;;;;;;22.80;11.20;;;;;;;13.74;36.43;100896.84;5026280;28;20060;-76
2021/03/01 08:53:51;;;;;;;15.60;8.88;;;;;;;13.86;36.12;100894.78;5026545;28;20021;-76
2021/03/01 08:56:25;;;;;;;20.10;10.32;;;;;;;13.95;36.02;100901.81;5028114;28;20033;-69
2021/03/01 08:58:51;;;;;;;;;;;;;;;14.27;36.14;100910.03;5024220;28;20351;-75
2021/03/01 09:01:17;;;;;;;19.05;10.52;;;;;;;14.30;35.45;100901.72;5034823;28;19912;-69
2021/03/01 09:03:44;;;;;;;21.48;10.55;;;;;;;14.48;35.71;100914.16;5036039;28;20111;-69
2021/03/01 09:06:19;;;;;;;22.15;11.07;;;;;;;14.12;35.58;100911.59;5023989;28;20042;-75
2021/03/01 09:08:45;;;;;;;23.15;10.00;;;;;;;14.00;34.94;100905.69;5029746;28;20040;-75
2021/03/01 09:11:13;;;;;;;15.98;9.60;;;;;;;13.91;36.01;100911.13;5026684;28;20335;-76
2021/03/01 09:13:40;;;;;;;17.67;9.55;;;;;;;14.06;35.68;100899.75;5036030;28;20045;-76
2021/03/01 09:16:11;;;;;;;15.90;9.10;;;;;;;14.00;35.58;100899.53;5036343;28;20026;-75
2021/03/01 09:18:40;;;;;;;17.63;9.35;;;;;;;13.97;35.17;100903.34;5030568;28;20084;-75
2021/03/01 09:21:07;;;;;;;18.83;8.90;;;;;;;13.92;35.42;100900.31;5027537;28;20030;-75
2021/03/01 09:23:47;;;;;;;19.80;9.57;;;;;;;13.62;35.92;100906.06;5045402;28;20044;-75
2021/03/01 09:26:37;;;;;;;14.23;8.55;;;;;;;13.58;35.63;100900.22;5026943;28;20022;-70
2021/03/01 09:29:17;;;;;;;14.15;6.97;;;;;;;13.74;34.90;100894.19;5027013;28;20817;-69
2021/03/01 09:31:44;;;;;;;19.45;8.10;;;;;;;14.02;34.08;100898.38;5031088;28;20044;-75
2021/03/01 09:34:11;;;;;;;13.82;6.97;;;;;;;14.15;32.89;100905.13;5030929;28;20262;-75
2021/03/01 09:36:38;;;;;;;18.05;7.25;;;;;;;14.32;33.66;100912.22;5031532;28;20063;-69
2021/03/01 09:39:06;;;;;;;15.25;7.75;;;;;;;14.20;33.30;100900.16;5029400;28;20069;-70
2021/03/01 09:41:37;;;;;;;19.33;8.18;;;;;;;14.30;34.41;100901.72;5032908;28;20033;-75
2021/03/01 09:44:04;;;;;;;14.73;7.50;;;;;;;14.18;33.43;100891.47;5022971;28;20096;-75
2021/03/01 09:46:31;;;;;;;12.55;7.22;;;;;;;14.17;33.74;100898.63;5022522;28;20038;-75
2021/03/01 09:49:01;;;;;;;11.23;5.70;;;;;;;13.87;30.52;100889.28;5030638;28;20045;-76
2021/03/01 09:51:29;;;;;;;10.13;5.63;;;;;;;13.97;29.13;100897.19;5033100;28;20316;-76
2021/03/01 09:53:58;;;;;;;10.55;6.30;;;;;;;14.13;31.76;100907.09;5042336;28;20033;-76
2021/03/01 09:56:38;;;;;;;16.05;7.90;;;;;;;14.17;32.40;100895.13;5036006;28;20038;-75
2021/03/01 09:59:04;;;;;;;9.48;5.28;;;;;;;14.30;28.74;100903.53;5030004;28;20045;-70
2021/03/01 10:01:29;;;;;;;12.90;5.72;;;;;;;14.49;28.91;100897.19;5028251;28;20223;-75
2021/03/01 10:03:54;;;;;;;11.93;7.32;;;;;;;14.69;31.08;100885.31;5027567;28;20045;-75
2021/03/01 10:06:35;;;;;;;11.85;7.63;;;;;;;14.73;31.46;100891.16;5034329;28;20082;-70
2021/03/01 10:09:04;;;;;;;14.35;6.20;;;;;;;14.79;29.74;100882.50;5030852;28;20239;-70
2021/03/01 10:11:30;;;;;;;9.93;5.32;;;;;;;14.68;27.80;100871.13;5026984;28;20267;-75
2021/03/01 10:14:10;;;;;;;12.23;6.18;;;;;;;14.24;30.03;100874.88;5026547;28;20038;-75
2021/03/01 10:16:38;;;;;;;11.23;6.40;;;;;;;13.93;30.17;100867.38;5031542;28;20307;-75
2021/03/01 10:19:14;;;;;;;16.27;7.22;;;;;;;14.10;30.83;100873.63;5027310;28;20092;-76
2021/03/01 10:21:40;;;;;;;13.65;6.80;;;;;;;14.06;30.52;100870.44;5032904;28;20354;-76
2021/03/01 10:24:08;;;;;;;13.45;6.38;;;;;;;14.20;30.86;100863.69;5029417;28;20037;-76
2021/03/01 10:26:50;;;;;;;13.05;6.88;;;;;;;14.28;30.79;100866.41;5030373;28;20017;-70
2021/03/01 10:29:15;;;;;;;8.35;5.15;;;;;;;14.12;30.23;100866.31;5026153;28;20024;-75
2021/03/01 10:31:40;;;;;;;12.15;6.07;;;;;;;13.55;31.92;100868.59;5026285;28;20030;-75
2021/03/01 10:34:10;;;;;;;16.20;6.50;;;;;;;13.33;31.83;100861.88;5025644;28;20040;-75
2021/03/01 10:36:47;;;;;;;15.80;7.00;;;;;;;13.10;32.42;100869.44;5028904;28;20096;-75
2021/03/01 10:39:18;;;;;;;14.13;6.75;;;;;;;12.99;32.92;100871.47;5026611;28;20223;-75
2021/03/01 10:41:54;;;;;;;15.55;6.88;;;;;;;13.07;34.27;100872.41;5026993;28;20065;-69
2021/03/01 10:44:34;;;;;;;16.23;6.97;;;;;;;13.20;34.57;100857.94;5029518;28;20315;-70
2021/03/01 10:47:19;;;;;;;11.43;6.55;;;;;;;13.50;33.24;100859.34;5035668;28;20033;-69
2021/03/01 10:49:46;;;;;;;13.85;6.13;;;;;;;13.74;33.14;100863.06;5030443;28;20049;-69
2021/03/01 10:52:13;;;;;;;15.18;7.13;;;;;;;13.68;32.12;100853.06;5032631;28;20071;-70
2021/03/01 10:54:39;;;;;;;11.40;6.18;;;;;;;13.89;32.13;100847.38;5035023;28;20033;-69
2021/03/01 10:57:05;;;;;;;10.93;6.47;;;;;;;13.93;31.41;100847.91;5041277;28;20044;-75
2021/03/01 10:59:31;;;;;;;14.70;6.00;;;;;;;14.08;31.43;100841.00;5033453;28;20126;-75
2021/03/01 11:01:57;;;;;;;10.43;6.05;;;;;;;14.36;31.64;100841.63;5029594;28;20041;-69
2021/03/01 11:04:22;;;;;;;12.95;5.85;;;;;;;13.75;29.60;100831.97;5029521;28;20120;-70
2021/03/01 11:06:52;;;;;;;10.23;6.07;;;;;;;13.82;30.75;100830.34;5025899;28;20095;-75
2021/03/01 11:09:19;;;;;;;11.80;5.70;;;;;;;13.68;31.17;100830.91;5028540;28;20347;-75
2021/03/01 11:11:46;;;;;;;10.30;5.90;;;;;;;13.90;31.65;100825.06;5029406;28;20100;-69
2021/03/01 11:14:13;;;;;;;9.32;5.63;;;;;;;13.90;31.46;100824.25;5021195;28;20253;-69
2021/03/01 11:16:39;;;;;;;15.05;6.50;;;;;;;13.93;31.44;100834.56;5021419;28;20231;-70
2021/03/01 11:19:06;;;;;;;12.43;5.72;;;;;;;14.07;31.13;100829.50;5029312;28;20061;-69
2021/03/01 11:21:32;;;;;;;10.13;6.50;;;;;;;14.17;30.97;100828.56;5029244;28;20084;-69
2021/03/01 11:23:58;;;;;;;11.25;6.07;;;;;;;13.91;31.23;100839.22;5023145;28;20076;-70
2021/03/01 11:26:23;;;;;;;12.57;5.38;;;;;;;13.67;31.11;100830.09;5032959;28;20057;-69